Time;durP1;ratioP1;P1;durP2;ratioP2;P2;SDS_P1;SDS_P2;PMS_P1;PMS_P2;Temp;Humidity;BMP_temperature;BMP_pressure;BME280_temperature;BME280_humidity;BME280_pressure;Samples;Min_cycle;Max_cycle;Signal;HPM_P1;HPM_P2
2021/11/01 00:01:02;;;;;;;28.42;25.33;;;;;;;26.82;17.61;94505.25;5035408;28;20052;-45
2021/11/01 00:03:29;;;;;;;28.60;25.60;;;;;;;26.77;17.70;94508.31;5035844;28;20050;-45
2021/11/01 00:05:56;;;;;;;27.35;24.42;;;;;;;26.41;17.97;94508.34;5035346;28;20041;-49
2021/11/01 00:08:23;;;;;;;26.77;23.98;;;;;;;26.95;17.77;94500.25;5035778;28;20368;-46
2021/11/01 00:10:50;;;;;;;28.50;25.42;;;;;;;26.67;17.66;94514.47;5035395;28;20049;-57
2021/11/01 00:13:17;;;;;;;26.30;23.33;;;;;;;27.23;17.79;94502.88;5035700;28;20045;-45
2021/11/01 00:15:45;;;;;;;26.65;23.85;;;;;;;26.75;17.92;94505.25;5035665;28;20049;-45
2021/11/01 00:18:12;;;;;;;27.40;24.30;;;;;;;26.83;17.77;94506.78;5035056;28;20048;-48
2021/11/01 00:20:39;;;;;;;27.75;24.75;;;;;;;26.62;18.14;94506.81;5035250;28;20049;-48
2021/11/01 00:23:06;;;;;;;28.80;25.80;;;;;;;26.59;18.02;94510.28;5035474;28;20120;-46
2021/11/01 00:25:33;;;;;;;29.40;26.05;;;;;;;26.69;17.86;94506.81;5034988;28;20045;-55
2021/11/01 00:28:01;;;;;;;30.60;26.27;;;;;;;26.66;18.24;94504.91;5033737;28;20049;-47
2021/11/01 00:30:29;;;;;;;29.63;26.42;;;;;;;26.54;18.17;94499.91;5034487;28;20049;-47
2021/11/01 00:32:56;;;;;;;32.83;29.30;;;;;;;26.37;18.32;94507.59;5034996;28;20353;-46
2021/11/01 00:35:23;;;;;;;31.45;27.95;;;;;;;26.82;18.15;94504.50;5034194;28;20367;-47
2021/11/01 00:37:50;;;;;;;30.98;26.90;;;;;;;26.70;17.99;94503.72;5034504;28;20042;-47
2021/11/01 00:40:17;;;;;;;33.75;29.50;;;;;;;26.50;18.28;94491.13;5035114;28;20053;-45
2021/11/01 00:42:45;;;;;;;34.35;29.13;;;;;;;26.42;18.17;94493.03;5033712;28;20049;-45
2021/11/01 00:45:12;;;;;;;34.15;29.55;;;;;;;26.67;18.05;94498.38;5034575;28;20045;-45
2021/11/01 00:47:39;;;;;;;34.00;30.23;;;;;;;26.65;18.31;94496.09;5034794;28;20045;-45
2021/11/01 00:50:07;;;;;;;31.98;27.85;;;;;;;26.54;17.97;94486.50;5034725;28;20056;-45
2021/11/01 00:52:34;;;;;;;32.30;28.33;;;;;;;26.70;17.87;94486.88;5034818;28;20076;-44
2021/11/01 00:55:03;;;;;;;33.17;29.58;;;;;;;26.36;18.35;94479.25;5034339;28;20056;-45
2021/11/01 00:57:31;;;;;;;32.08;28.65;;;;;;;26.33;18.48;94480.00;5033995;28;20056;-45
2021/11/01 00:59:59;;;;;;;25.15;22.52;;;;;;;26.72;18.33;94479.22;5033757;28;20059;-45
2021/11/01 01:02:29;;;;;;;27.60;24.40;;;;;;;26.82;18.05;94473.09;5034601;28;20037;-45
2021/11/01 01:04:56;;;;;;;25.20;22.60;;;;;;;26.69;18.27;94469.25;5034078;28;20041;-47
2021/11/01 01:07:23;;;;;;;27.13;21.90;;;;;;;26.67;17.64;94466.22;5049402;28;20049;-45
2021/11/01 01:09:50;;;;;;;29.50;22.98;;;;;;;26.29;17.99;94468.53;5033891;28;20045;-45
2021/11/01 01:12:17;;;;;;;26.55;22.20;;;;;;;26.33;18.26;94463.94;5034713;28;20045;-45
2021/11/01 01:14:51;;;;;;;24.50;22.00;;;;;;;26.34;18.00;94460.13;5033398;28;20064;-45
2021/11/01 01:17:20;;;;;;;24.27;21.75;;;;;;;26.52;18.08;94448.59;5016768;28;20056;-45
2021/11/01 01:19:57;;;;;;;25.05;22.45;;;;;;;26.28;18.07;94450.13;5034371;28;20049;-45
2021/11/01 01:22:29;;;;;;;24.48;21.98;;;;;;;26.18;17.91;94442.88;5034700;28;20053;-45
2021/11/01 01:27:42;;;;;;;23.90;21.35;;;;;;;26.24;18.11;94441.31;5049684;28;20060;-45
2021/11/01 01:30:10;;;;;;;23.95;21.65;;;;;;;26.30;18.09;94437.13;5033936;28;20470;-46
2021/11/01 01:32:38;;;;;;;23.33;20.92;;;;;;;26.08;18.01;94436.38;5034135;28;20041;-45
2021/11/01 01:35:06;;;;;;;23.98;21.58;;;;;;;26.27;18.14;94433.28;5032979;28;20060;-45
2021/11/01 01:37:33;;;;;;;22.73;20.30;;;;;;;26.03;18.37;94429.50;5033826;28;20045;-45
2021/11/01 01:40:00;;;;;;;23.45;21.15;;;;;;;25.95;18.32;94430.63;5033900;28;20662;-45
2021/11/01 01:42:27;;;;;;;23.17;20.73;;;;;;;26.14;17.95;94418.75;5034252;28;20045;-45
2021/11/01 01:44:54;;;;;;;22.20;19.88;;;;;;;26.18;18.10;94424.88;5033158;28;20053;-46
2021/11/01 01:47:21;;;;;;;22.95;20.48;;;;;;;26.00;18.31;94419.53;5032922;28;20041;-50
2021/11/01 01:49:49;;;;;;;22.23;19.85;;;;;;;26.28;17.62;94417.97;5034161;28;20052;-45
2021/11/01 01:52:16;;;;;;;20.92;18.77;;;;;;;26.15;17.96;94409.56;5034384;28;20049;-45
2021/11/01 01:54:44;;;;;;;23.35;20.75;;;;;;;26.20;17.87;94416.47;5033090;28;20045;-45
2021/11/01 01:57:11;;;;;;;22.98;20.55;;;;;;;25.99;18.18;94403.84;5033198;28;20659;-45
2021/11/01 01:59:38;;;;;;;21.65;19.35;;;;;;;26.25;18.03;94408.78;5034023;28;20053;-45
2021/11/01 02:02:05;;;;;;;23.48;20.35;;;;;;;25.91;18.18;94400.41;5033883;28;20053;-45
2021/11/01 02:04:35;;;;;;;22.65;20.25;;;;;;;26.23;18.16;94400.38;5033907;28;20355;-45
2021/11/01 02:07:43;;;;;;;22.45;20.02;;;;;;;26.34;17.72;94401.16;5033307;28;20053;-45
2021/11/01 02:10:14;;;;;;;22.67;20.17;;;;;;;26.58;17.49;94404.19;5018018;28;20053;-45
2021/11/01 02:12:48;;;;;;;25.13;22.42;;;;;;;26.06;17.94;94401.19;5033627;28;20045;-46
2021/11/01 02:15:35;;;;;;;23.35;20.92;;;;;;;26.02;18.17;94405.75;5048752;28;20045;-45
2021/11/01 02:18:04;;;;;;;23.67;21.13;;;;;;;26.25;17.74;94395.41;5033356;28;20045;-45
2021/11/01 02:20:37;;;;;;;23.60;21.10;;;;;;;26.25;17.81;94397.31;5032904;28;20052;-45
2021/11/01 02:23:14;;;;;;;24.98;21.27;;;;;;;26.49;17.38;94393.09;5033198;28;20041;-48
2021/11/01 02:25:49;;;;;;;22.60;20.20;;;;;;;26.19;17.56;94399.63;5032756;28;20060;-46
2021/11/01 02:28:24;;;;;;;25.15;21.10;;;;;;;26.30;17.82;94400.38;5015929;28;20057;-45
2021/11/01 02:30:53;;;;;;;24.00;21.50;;;;;;;26.15;17.47;94406.91;5033208;28;20052;-45
2021/11/01 02:33:23;;;;;;;23.75;21.23;;;;;;;26.13;18.20;94406.53;5033451;28;20452;-45
2021/11/01 02:35:51;;;;;;;24.13;21.60;;;;;;;26.30;17.78;94413.03;5033113;28;20049;-46
2021/11/01 02:38:21;;;;;;;24.02;21.55;;;;;;;26.26;17.62;94410.31;5033643;28;20041;-45
2021/11/01 02:40:49;;;;;;;24.58;21.95;;;;;;;26.12;18.10;94413.78;5033231;28;20443;-45
2021/11/01 02:43:17;;;;;;;21.98;19.70;;;;;;;25.95;18.08;94406.53;5033552;28;20042;-45
2021/11/01 02:45:45;;;;;;;23.42;21.02;;;;;;;26.08;18.01;94421.06;5031927;28;20053;-45
2021/11/01 02:48:13;;;;;;;24.90;22.30;;;;;;;26.04;18.32;94414.19;5033502;28;20046;-45
2021/11/01 02:50:40;;;;;;;23.13;20.55;;;;;;;26.63;17.63;94414.50;5032920;28;20121;-46
2021/11/01 02:53:07;;;;;;;23.95;21.55;;;;;;;26.15;17.96;94409.56;5033388;28;20060;-46
2021/11/01 02:55:35;;;;;;;26.83;22.58;;;;;;;26.35;17.89;94407.28;5032879;28;20045;-45
2021/11/01 02:58:03;;;;;;;25.25;22.70;;;;;;;26.19;18.04;94413.00;5032799;28;20456;-45
2021/11/01 03:00:31;;;;;;;26.98;24.08;;;;;;;26.33;17.80;94409.56;5032721;28;20052;-45
2021/11/01 03:02:59;;;;;;;25.25;22.55;;;;;;;26.31;17.80;94412.63;5033274;28;20380;-45
2021/11/01 03:05:30;;;;;;;23.40;21.00;;;;;;;26.63;17.91;94404.56;5035076;28;20053;-45
2021/11/01 03:07:58;;;;;;;25.63;22.92;;;;;;;26.48;18.01;94404.97;5067435;28;20050;-46
2021/11/01 03:10:25;;;;;;;25.17;21.92;;;;;;;26.53;17.79;94396.53;5036411;28;20060;-46
2021/11/01 03:12:53;;;;;;;24.75;22.15;;;;;;;26.62;17.64;94404.94;5061952;28;20052;-46
2021/11/01 03:15:25;;;;;;;25.20;22.52;;;;;;;26.53;17.92;94401.88;5033284;28;20042;-45
2021/11/01 03:17:59;;;;;;;24.00;21.50;;;;;;;26.51;17.75;94398.81;5036510;28;20056;-45
2021/11/01 03:20:31;;;;;;;23.80;21.33;;;;;;;26.28;18.17;94397.31;5068502;28;20064;-49
2021/11/01 03:23:20;;;;;;;27.90;21.98;;;;;;;26.64;18.23;94391.91;5035692;28;20060;-46
2021/11/01 03:26:02;;;;;;;28.52;21.10;;;;;;;26.43;17.64;94396.16;5035703;28;20060;-46
2021/11/01 03:28:31;;;;;;;21.60;19.40;;;;;;;26.88;18.04;94393.00;5019345;28;20065;-45
2021/11/01 03:31:00;;;;;;;23.45;20.90;;;;;;;26.82;17.79;94392.63;5036244;28;20042;-56
2021/11/01 03:33:36;;;;;;;23.45;20.98;;;;;;;26.36;17.67;94385.47;5068391;28;20368;-53
2021/11/01 03:36:08;;;;;;;23.85;20.75;;;;;;;26.23;18.10;94386.97;5066349;28;20053;-45
2021/11/01 03:38:37;;;;;;;23.08;20.48;;;;;;;26.20;17.90;94384.31;5027515;28;20050;-45
2021/11/01 03:41:08;;;;;;;22.83;20.42;;;;;;;26.35;17.78;94383.94;5024677;28;20052;-55
2021/11/01 03:44:03;;;;;;;23.42;21.00;;;;;;;26.27;17.47;94382.38;5036174;28;20046;-44
2021/11/01 03:49:05;;;;;;;23.63;21.23;;;;;;;26.29;17.76;94385.47;5066611;28;20057;-45
2021/11/01 03:54:17;;;;;;;23.17;20.63;;;;;;;26.47;17.35;94379.31;5035620;28;20045;-45
2021/11/01 03:56:45;;;;;;;24.50;22.00;;;;;;;26.16;17.45;94368.25;5035171;28;20490;-45
2021/11/01 03:59:13;;;;;;;29.55;21.50;;;;;;;26.25;17.39;94365.16;5018290;28;20056;-45
2021/11/01 04:01:43;;;;;;;23.38;20.98;;;;;;;26.25;17.49;94371.28;5035695;28;20460;-47
2021/11/01 04:04:10;;;;;;;24.45;22.00;;;;;;;26.01;17.66;94377.44;5035546;28;20041;-44
2021/11/01 04:06:39;;;;;;;24.77;22.20;;;;;;;26.29;17.24;94377.44;5035652;28;20387;-46
2021/11/01 04:09:08;;;;;;;23.92;21.50;;;;;;;26.11;17.33;94371.31;5035638;28;20045;-45
2021/11/01 04:11:37;;;;;;;25.42;22.73;;;;;;;25.96;17.59;94364.44;5035492;28;20049;-46
2021/11/01 04:14:12;;;;;;;24.05;21.58;;;;;;;26.09;17.51;94362.91;5035516;28;20049;-45
2021/11/01 04:16:46;;;;;;;24.20;21.67;;;;;;;26.21;17.36;94354.44;5064487;28;20057;-45
2021/11/01 04:21:45;;;;;;;22.90;20.60;;;;;;;26.48;17.84;94362.09;5049345;28;20049;-45
2021/11/01 04:24:14;;;;;;;23.70;21.25;;;;;;;26.17;17.83;94356.38;5055184;28;20045;-45
2021/11/01 04:26:43;;;;;;;22.45;20.05;;;;;;;26.39;17.46;94360.59;5025664;28;20061;-46
2021/11/01 04:29:11;;;;;;;21.50;19.25;;;;;;;26.27;17.54;94352.91;5035676;28;20061;-45
2021/11/01 04:31:39;;;;;;;22.38;20.05;;;;;;;26.28;17.56;94359.03;5035078;28;20052;-45
2021/11/01 04:34:27;;;;;;;22.42;20.10;;;;;;;26.38;17.33;94363.66;5034850;28;20045;-46
2021/11/01 04:36:56;;;;;;;23.45;20.92;;;;;;;26.29;17.37;94349.88;5034420;28;20056;-45
2021/11/01 04:45:05;;;;;;;22.92;20.60;;;;;;;26.27;17.40;94355.59;5034893;28;20371;-45
2021/11/01 04:53:02;;;;;;;24.88;21.60;;;;;;;26.18;17.34;94349.88;5035330;28;20062;-45
2021/11/01 04:55:30;;;;;;;25.50;22.25;;;;;;;26.12;17.32;94340.69;5034572;28;20045;-45
2021/11/01 04:57:57;;;;;;;23.83;21.15;;;;;;;26.15;17.30;94350.66;5033821;28;20045;-45
2021/11/01 05:00:25;;;;;;;24.15;21.75;;;;;;;26.02;17.39;94349.50;5066665;28;20049;-45
2021/11/01 05:03:05;;;;;;;31.17;21.77;;;;;;;26.18;17.40;94355.22;5034845;28;20041;-45
2021/11/01 05:05:33;;;;;;;23.52;21.00;;;;;;;26.18;17.40;94344.50;5034521;28;20474;-45
2021/11/01 05:08:01;;;;;;;23.70;21.20;;;;;;;26.04;17.46;94349.91;5033591;28;20053;-45
2021/11/01 05:10:32;;;;;;;25.08;22.38;;;;;;;25.90;17.58;94350.66;5034342;28;20436;-46
2021/11/01 05:13:04;;;;;;;23.17;20.67;;;;;;;26.13;17.27;94348.34;5034832;28;20048;-45
2021/11/01 05:15:39;;;;;;;31.30;21.60;;;;;;;25.87;17.36;94351.44;5034158;28;20052;-45
2021/11/01 05:23:38;;;;;;;23.80;21.20;;;;;;;27.27;17.04;94360.63;5033805;28;20049;-45
2021/11/01 05:26:10;;;;;;;23.23;19.77;;;;;;;27.74;16.90;94361.13;5042034;28;20052;-48
2021/11/01 05:28:45;;;;;;;22.40;20.23;;;;;;;28.06;17.00;94361.59;5025604;28;20364;-45
2021/11/01 05:31:22;;;;;;;25.10;22.50;;;;;;;28.01;17.35;94356.66;5021198;28;20062;-43
2021/11/01 05:36:20;;;;;;;36.38;29.48;;;;;;;28.85;15.86;94354.31;5033691;28;20383;-42
2021/11/01 05:38:49;;;;;;;44.40;32.10;;;;;;;30.40;14.86;94348.94;5033286;28;20376;-50
2021/11/01 05:41:16;;;;;;;71.10;44.28;;;;;;;31.19;14.16;94348.97;5033223;28;20057;-45
2021/11/01 05:43:44;;;;;;;57.63;37.63;;;;;;;31.89;13.54;94361.31;5031270;28;20077;-41
2021/11/01 05:46:12;;;;;;;59.75;38.30;;;;;;;32.43;13.15;94366.19;5014434;28;20041;-54
2021/11/01 05:48:47;;;;;;;49.25;34.13;;;;;;;32.98;13.44;94373.19;5019488;28;20049;-45
2021/11/01 05:51:16;;;;;;;49.38;35.60;;;;;;;32.19;14.07;94376.41;5019909;28;20044;-50
2021/11/01 05:53:46;;;;;;;52.88;37.20;;;;;;;31.41;14.58;94375.50;5034130;28;20041;-44
2021/11/01 06:04:22;;;;;;;54.08;39.08;;;;;;;30.74;15.10;94374.94;5033531;28;20037;-55
2021/11/01 06:07:29;;;;;;;51.47;38.45;;;;;;;30.50;15.19;94377.66;5019549;28;20056;-62
2021/11/01 06:15:14;;;;;;;43.20;34.55;;;;;;;30.45;15.08;94378.16;5013132;28;20376;-45
2021/11/01 06:17:42;;;;;;;39.95;33.72;;;;;;;30.49;15.10;94370.00;5016372;28;20049;-45
2021/11/01 06:20:12;;;;;;;36.83;31.85;;;;;;;30.52;14.88;94378.00;5033610;28;20495;-66
2021/11/01 06:22:39;;;;;;;35.13;31.30;;;;;;;30.55;15.15;94382.56;5033375;28;20460;-59
2021/11/01 06:25:08;;;;;;;34.35;30.45;;;;;;;30.76;15.09;94383.38;5033518;28;20050;-65
2021/11/01 06:27:35;;;;;;;35.17;29.58;;;;;;;30.85;14.96;94373.56;5032353;28;20068;-44
2021/11/01 06:32:40;;;;;;;28.67;25.67;;;;;;;31.09;14.85;94376.16;5033302;28;20045;-53
2021/11/01 06:43:33;;;;;;;25.95;23.50;;;;;;;31.50;14.56;94371.06;5036624;28;20056;-57
2021/11/01 06:56:38;;;;;;;67.70;51.90;;;;;;;31.39;14.49;94367.06;5022872;28;20120;-45
2021/11/01 07:15:49;;;;;;;63.40;58.25;;;;;;;32.23;14.18;94363.56;5036206;28;20132;-45
2021/11/01 07:18:24;;;;;;;171.80;82.28;;;;;;;32.39;14.06;94368.97;5035520;28;20056;-45
2021/11/01 07:21:05;;;;;;;195.32;82.75;;;;;;;32.56;13.71;94371.66;5036221;28;20052;-50
2021/11/01 08:37:28;;;;;;;22.77;20.27;;;;;;;34.37;12.96;94331.03;5033913;28;20049;-60
2021/11/01 08:40:12;;;;;;;22.25;19.92;;;;;;;34.44;12.93;94319.94;5032094;28;20167;-51
2021/11/01 08:51:19;;;;;;;24.88;22.40;;;;;;;32.48;14.23;94309.59;5034658;28;20494;-45
2021/11/01 09:05:01;;;;;;;22.73;20.38;;;;;;;32.27;15.13;94307.50;5034498;28;20058;-45
2021/11/01 09:07:43;;;;;;;23.63;21.27;;;;;;;32.35;14.69;94310.75;5034386;28;20049;-47
2021/11/01 09:10:59;;;;;;;22.50;20.13;;;;;;;32.30;14.96;94314.00;5018558;28;20045;-46
2021/11/01 09:13:26;;;;;;;23.88;21.25;;;;;;;32.26;14.94;94308.66;5030979;28;20064;-58
2021/11/01 09:24:38;;;;;;;24.05;21.63;;;;;;;32.07;14.71;94291.34;5034262;28;20045;-45
2021/11/01 09:27:08;;;;;;;25.50;23.08;;;;;;;31.79;15.48;94292.84;5033817;28;20359;-46
2021/11/01 09:43:08;;;;;;;24.23;21.88;;;;;;;32.14;14.60;94268.78;5034360;28;20060;-54
2021/11/01 09:45:37;;;;;;;26.17;23.40;;;;;;;32.46;14.61;94257.13;5049782;28;20041;-54
2021/11/01 09:48:05;;;;;;;24.25;21.73;;;;;;;33.45;14.77;94258.88;5023264;28;20065;-52
2021/11/01 09:50:34;;;;;;;24.90;22.45;;;;;;;33.45;14.80;94253.44;5032724;28;20046;-50
2021/11/01 09:53:07;;;;;;;25.75;23.25;;;;;;;33.33;14.45;94254.22;5034318;28;20056;-53
2021/11/01 09:56:05;;;;;;;27.08;24.55;;;;;;;33.63;14.52;94242.81;5034186;28;20038;-46
2021/11/01 10:01:22;;;;;;;27.02;24.33;;;;;;;33.44;14.45;94238.38;5033589;28;20065;-45
2021/11/01 10:03:52;;;;;;;28.33;25.42;;;;;;;33.46;14.44;94238.72;5033657;28;20053;-46
2021/11/01 10:06:22;;;;;;;31.05;25.75;;;;;;;33.47;14.12;94240.22;5033804;28;20053;-46
2021/11/01 10:08:50;;;;;;;28.42;25.67;;;;;;;33.44;14.23;94235.69;5033555;28;20053;-47
2021/11/01 10:11:22;;;;;;;26.83;24.23;;;;;;;33.52;14.23;94231.53;5033584;28;20042;-46
2021/11/01 10:13:50;;;;;;;;;;;;;;;33.75;14.10;94218.81;5034135;28;20049;-47
2021/11/01 10:19:31;;;;;;;28.50;25.58;;;;;;;33.61;14.10;94201.84;5037636;28;20053;-49
2021/11/01 10:22:08;;;;;;;28.67;25.52;;;;;;;33.53;14.28;94216.78;5020103;28;20049;-45
2021/11/01 10:24:41;;;;;;;26.27;23.58;;;;;;;33.89;13.79;94210.22;5017752;28;20050;-45
2021/11/01 10:27:16;;;;;;;26.42;23.58;;;;;;;34.00;13.63;94205.19;5029219;28;20495;-45
2021/11/01 10:29:57;;;;;;;25.58;23.08;;;;;;;33.72;13.82;94204.94;5036427;28;20050;-55
2021/11/01 10:32:28;;;;;;;25.45;22.77;;;;;;;33.94;13.72;94198.81;5037191;28;20079;-46
2021/11/01 10:35:18;;;;;;;;;;;;;;;33.95;13.91;94192.94;5037108;28;20060;-45
2021/11/01 10:41:11;;;;;;;26.13;23.33;;;;;;;33.76;14.00;94185.84;5003696;28;20045;-46
2021/11/01 10:44:09;;;;;;;24.63;21.95;;;;;;;33.65;14.03;94183.50;5037328;28;20045;-47
2021/11/01 10:58:07;;;;;;;26.02;23.23;;;;;;;33.86;14.42;94152.22;5036237;28;20045;-46
2021/11/01 11:14:44;;;;;;;25.40;22.90;;;;;;;34.97;14.00;94135.34;5023159;28;20037;-46
2021/11/01 11:17:24;;;;;;;25.48;22.73;;;;;;;36.01;13.61;94134.56;5036972;28;20057;-47
2021/11/01 11:20:17;;;;;;;24.50;21.88;;;;;;;35.34;13.35;94132.72;5065955;28;20060;-47
2021/11/01 11:26:39;;;;;;;24.30;19.65;;;;;;;34.18;13.94;94134.81;5035468;28;20052;-61
2021/11/01 11:48:47;;;;;;;19.42;17.40;;;;;;;34.02;13.92;94099.75;5036119;28;20075;-53
2021/11/01 11:51:14;;;;;;;20.58;17.17;;;;;;;33.80;14.06;94098.97;5036574;28;20041;-58
2021/11/01 11:53:57;;;;;;;18.75;16.80;;;;;;;33.57;14.09;94090.09;5036106;28;20080;-61
2021/11/01 11:56:44;;;;;;;18.83;16.80;;;;;;;34.38;13.68;94090.34;5050921;28;20053;-53
2021/11/01 11:59:11;;;;;;;17.73;16.05;;;;;;;35.00;13.41;94088.28;5033844;28;20334;-64
2021/11/01 12:01:43;;;;;;;18.13;16.20;;;;;;;33.97;13.57;94089.47;5016613;28;20048;-53
2021/11/01 12:04:32;;;;;;;18.48;16.58;;;;;;;33.51;13.94;94081.00;5029179;28;20057;-46
2021/11/01 12:07:02;;;;;;;17.33;15.52;;;;;;;33.75;13.72;94081.31;5016554;28;20049;-52
2021/11/01 12:17:22;;;;;;;15.30;13.75;;;;;;;33.93;13.39;94073.34;5017924;28;20054;-46
2021/11/01 12:19:50;;;;;;;19.50;14.15;;;;;;;33.73;13.56;94060.09;5035689;28;20452;-58
2021/11/01 12:22:29;;;;;;;15.10;13.80;;;;;;;33.51;13.69;94055.88;5035603;28;20464;-53
2021/11/01 12:25:00;;;;;;;;;;;;;;;33.42;13.50;94053.84;5035551;28;20480;-54
2021/11/01 12:27:31;;;;;;;21.75;15.00;;;;;;;33.26;13.99;94045.88;5033850;28;19917;-55
2021/11/01 12:30:00;;;;;;;15.13;13.63;;;;;;;33.41;13.58;94053.09;5035391;28;20052;-47
2021/11/01 12:32:28;;;;;;;16.90;13.48;;;;;;;33.53;13.86;94051.50;5067182;28;20049;-45
2021/11/01 12:35:06;;;;;;;15.15;13.52;;;;;;;33.22;13.54;94045.22;5034845;28;20360;-47
2021/11/01 12:37:39;;;;;;;14.40;13.00;;;;;;;33.45;13.54;94047.56;5034431;28;20375;-46
2021/11/01 12:59:45;;;;;;;14.38;12.82;;;;;;;33.25;14.04;94033.53;5034740;28;20056;-49
2021/11/01 13:02:19;;;;;;;15.07;13.52;;;;;;;33.32;13.94;94027.91;5034706;28;20052;-46
2021/11/01 13:04:49;;;;;;;14.25;12.85;;;;;;;33.15;14.03;94035.41;5034431;28;20056;-52
2021/11/01 13:10:17;;;;;;;15.43;13.75;;;;;;;33.34;13.95;94025.50;5034545;28;20049;-45
2021/11/01 13:20:34;;;;;;;15.50;14.00;;;;;;;33.30;14.54;94030.25;5034949;28;20045;-48
2021/11/01 13:23:02;;;;;;;15.50;14.10;;;;;;;33.22;14.30;94023.56;5034362;28;20045;-45
2021/11/01 13:38:52;;;;;;;14.43;12.98;;;;;;;33.27;14.33;94015.63;5034247;28;20046;-57
2021/11/01 13:41:27;;;;;;;14.35;12.90;;;;;;;33.23;14.39;94015.00;5034251;28;20360;-56
2021/11/01 13:44:19;;;;;;;14.25;12.95;;;;;;;33.06;14.13;94010.97;5034043;28;20117;-55
2021/11/01 13:46:50;;;;;;;15.63;13.07;;;;;;;33.06;14.31;94011.72;5028467;28;20472;-52
2021/11/01 13:49:19;;;;;;;16.47;13.60;;;;;;;33.11;14.41;94008.47;5033308;28;20045;-56
2021/11/01 13:51:49;;;;;;;24.45;13.77;;;;;;;33.05;14.44;94001.31;5034002;28;20072;-62
2021/11/01 13:54:47;;;;;;;15.70;13.85;;;;;;;33.00;14.29;94007.28;5033848;28;20053;-46
2021/11/01 13:57:06;;;;;;;15.20;13.80;;;;;;;33.10;14.26;94000.78;5032804;28;20045;-56
2021/11/01 13:59:45;;;;;;;16.63;13.68;;;;;;;33.26;14.10;94005.25;5033694;28;20380;-47
2021/11/01 14:02:48;;;;;;;14.60;13.07;;;;;;;33.18;14.53;93996.63;5034056;28;20049;-47
2021/11/01 14:11:01;;;;;;;14.98;13.48;;;;;;;33.00;14.54;94008.03;5034021;28;20334;-46
2021/11/01 14:18:43;;;;;;;15.10;13.50;;;;;;;33.03;14.44;94006.41;5033837;28;20063;-46
2021/11/01 15:15:54;;;;;;;21.10;16.65;;;;;;;32.85;14.08;93985.38;5036618;28;20049;-48
2021/11/01 15:21:02;;;;;;;24.98;20.73;;;;;;;32.78;14.11;93980.16;4982971;28;20090;-46
2021/11/01 15:32:31;;;;;;;29.98;21.60;;;;;;;32.71;14.02;93980.41;4975292;28;20377;-46
2021/11/01 16:18:15;;;;;;;22.65;20.35;;;;;;;31.71;14.76;93980.75;5043257;28;20064;-45
2021/11/01 16:20:47;;;;;;;32.20;23.98;;;;;;;31.85;14.77;93987.69;5027103;28;20336;-44
2021/11/01 16:25:55;;;;;;;28.33;25.15;;;;;;;31.59;14.70;93987.63;5026635;28;20045;-45
2021/11/01 16:28:25;;;;;;;30.65;26.63;;;;;;;31.85;14.92;93977.66;5046956;28;20748;-53
2021/11/01 16:31:24;;;;;;;31.27;27.08;;;;;;;30.45;16.45;93989.84;5039478;28;20048;-64
2021/11/01 16:33:47;;;;;;;25.15;22.55;;;;;;;30.77;15.01;93983.66;5043191;28;20368;-53
2021/11/01 16:36:26;;;;;;;26.50;23.70;;;;;;;31.14;15.05;93978.84;5026372;28;20048;-55
2021/11/01 16:38:57;;;;;;;19.77;17.77;;;;;;;30.92;14.75;93981.34;5031929;28;20053;-63
2021/11/01 16:41:25;;;;;;;24.55;22.02;;;;;;;31.09;14.63;93974.72;5054849;28;20379;-74
2021/11/01 16:43:52;;;;;;;25.52;22.40;;;;;;;31.10;14.65;93976.25;5037367;28;20045;-48
2021/11/01 16:46:23;;;;;;;27.08;24.27;;;;;;;30.88;15.16;93983.38;5034381;28;20072;-58
2021/11/01 16:48:50;;;;;;;25.42;21.60;;;;;;;31.23;14.67;93981.72;5034759;28;20456;-68
2021/11/01 16:51:17;;;;;;;26.50;23.48;;;;;;;30.74;15.10;93978.38;5017300;28;20056;-51
2021/11/01 16:53:48;;;;;;;30.30;24.85;;;;;;;30.68;15.25;93986.94;5033874;28;20554;-45
2021/11/01 16:59:03;;;;;;;32.57;28.70;;;;;;;31.00;15.30;93988.09;5031084;28;20061;-53
2021/11/01 17:01:31;;;;;;;19.42;17.35;;;;;;;31.53;14.88;93991.31;5017395;28;20418;-52
2021/11/01 17:04:04;;;;;;;35.50;31.70;;;;;;;30.76;15.31;93986.78;5016328;28;20060;-53
2021/11/01 17:09:21;;;;;;;24.27;20.65;;;;;;;31.08;14.82;93992.09;5016551;28;20041;-51
2021/11/01 17:23:01;;;;;;;29.88;26.52;;;;;;;30.58;15.63;94006.84;5032517;28;20053;-53
2021/11/01 17:25:44;;;;;;;31.17;27.73;;;;;;;30.14;15.96;94012.88;5031365;28;20360;-52
2021/11/01 17:28:30;;;;;;;38.42;33.75;;;;;;;30.10;15.94;94022.97;5033221;28;20053;-52
2021/11/01 18:51:58;;;;;;;58.58;50.33;;;;;;;30.89;16.10;94053.13;5007160;28;20053;-43
2021/11/01 18:54:30;;;;;;;47.53;42.42;;;;;;;30.78;16.04;94049.19;5017308;28;20384;-47
2021/11/01 18:56:59;;;;;;;46.35;39.42;;;;;;;30.56;16.38;94046.97;5012292;28;20072;-49
2021/11/01 18:59:27;;;;;;;45.50;36.42;;;;;;;30.11;16.37;94051.44;5036333;28;20053;-48
2021/11/01 19:04:33;;;;;;;41.38;35.95;;;;;;;29.67;16.92;94050.81;5017492;28;20049;-50
2021/11/01 19:07:11;;;;;;;40.15;34.65;;;;;;;29.96;16.78;94046.34;5022867;28;20041;-51
2021/11/01 20:05:58;;;;;;;48.63;43.35;;;;;;;26.78;18.84;94070.09;5033983;28;20053;-46
2021/11/01 21:26:23;;;;;;;41.08;36.67;;;;;;;25.97;19.75;94017.81;5061028;28;20060;-49
2021/11/01 21:28:52;;;;;;;45.25;37.50;;;;;;;26.07;19.74;94017.00;5034198;28;20052;-47
2021/11/01 21:31:21;;;;;;;40.22;36.00;;;;;;;26.16;20.02;94014.66;5034514;28;20734;-46
2021/11/01 21:33:54;;;;;;;39.03;34.88;;;;;;;26.04;19.92;94012.44;5033612;28;20045;-46
2021/11/01 21:36:24;;;;;;;38.95;33.00;;;;;;;26.72;19.82;94002.75;5024622;28;20046;-60
2021/11/01 21:38:56;;;;;;;38.22;33.75;;;;;;;27.03;18.94;94006.28;5030423;28;20041;-46
2021/11/01 21:41:27;;;;;;;;;;;;;;;27.23;18.48;94009.16;5034848;28;20360;-66
2021/11/01 21:43:54;;;;;;;40.25;34.15;;;;;;;27.58;17.97;93997.22;5020178;28;19913;-49
2021/11/01 21:46:21;;;;;;;41.15;34.22;;;;;;;27.58;18.35;93996.47;5013864;28;20049;-56
2021/11/01 21:48:51;;;;;;;40.72;34.85;;;;;;;27.87;17.99;93996.91;5029949;28;20048;-45
2021/11/01 21:51:19;;;;;;;43.25;36.45;;;;;;;27.44;17.88;93992.03;5033152;28;20049;-44
2021/11/01 21:53:53;;;;;;;43.53;35.75;;;;;;;27.67;17.49;93982.59;5032499;28;20045;-44
2021/11/01 21:56:20;;;;;;;43.67;35.95;;;;;;;27.49;18.29;93978.16;5032323;28;20049;-44
2021/11/01 22:01:27;;;;;;;42.85;34.00;;;;;;;28.04;17.64;93974.38;5031066;28;20460;-45
2021/11/01 22:10:02;;;;;;;39.28;33.10;;;;;;;27.86;17.63;93957.78;5021927;28;20050;-44
2021/11/01 22:20:55;;;;;;;38.83;33.15;;;;;;;28.17;17.14;93974.59;5021295;28;20041;-44
2021/11/01 22:26:05;;;;;;;35.42;30.55;;;;;;;28.23;17.28;93960.25;5024845;28;20455;-44
2021/11/01 22:34:18;;;;;;;36.42;30.75;;;;;;;28.07;17.26;93949.38;5029715;28;20045;-44
2021/11/01 22:55:52;;;;;;;33.92;29.67;;;;;;;28.38;17.67;93943.94;5030140;28;20057;-46
2021/11/01 22:58:28;;;;;;;32.67;28.17;;;;;;;28.63;17.15;93927.41;5032612;23;20024;-54
2021/11/01 23:01:08;;;;;;;30.98;27.52;;;;;;;28.20;17.20;93928.84;5004526;28;20061;-46
2021/11/01 23:31:35;;;;;;;28.77;25.65;;;;;;;28.42;17.07;93893.56;5008880;28;20061;-51
2021/11/01 23:33:54;;;;;;;29.75;25.50;;;;;;;28.32;17.07;93892.56;5004299;28;20048;-50
2021/11/01 23:36:22;;;;;;;27.95;24.98;;;;;;;28.20;16.92;93891.22;5006501;28;20381;-55
2021/11/01 23:38:50;;;;;;;29.50;26.08;;;;;;;28.23;17.30;93885.03;5004888;28;20050;-51
2021/11/01 23:41:18;;;;;;;29.88;26.70;;;;;;;28.51;17.17;93891.84;5006655;28;20457;-52
2021/11/01 23:43:47;;;;;;;30.42;27.27;;;;;;;28.31;17.05;93882.25;5006115;28;20054;-45
2021/11/01 23:46:15;;;;;;;30.00;26.67;;;;;;;28.21;16.95;93882.00;5005068;28;20050;-49
2021/11/01 23:48:43;;;;;;;29.67;26.58;;;;;;;28.08;17.46;93867.63;5006327;28;20046;-61
2021/11/01 23:51:11;;;;;;;29.63;26.52;;;;;;;28.18;17.12;93861.31;5006081;28;20046;-50
2021/11/01 23:53:48;;;;;;;29.30;26.20;;;;;;;28.10;17.07;93876.03;5014493;28;20045;-46
2021/11/01 23:56:16;;;;;;;30.48;27.20;;;;;;;27.96;17.32;93887.00;5016597;28;20333;-45